createdAt,value
2019-04-26T00:00:28.325Z,0.00
2019-04-26T00:01:28.311Z,0.00
2019-04-26T00:02:28.297Z,0.00
2019-04-26T00:03:28.281Z,0.00
2019-04-26T00:04:28.262Z,0.00
2019-04-26T00:05:34.508Z,0.00
2019-04-26T00:06:28.230Z,0.00
2019-04-26T00:07:28.218Z,0.00
2019-04-26T00:08:28.199Z,0.00
2019-04-26T00:09:28.185Z,0.00
2019-04-26T00:10:28.166Z,0.00
2019-04-26T00:11:28.153Z,0.00
2019-04-26T00:12:28.138Z,0.00
2019-04-26T00:13:28.126Z,0.00
2019-04-26T00:14:28.102Z,0.00
2019-04-26T00:15:28.092Z,0.00
2019-04-26T00:16:28.101Z,0.00
2019-04-26T00:17:28.055Z,0.00
2019-04-26T00:18:28.046Z,0.00
2019-04-26T00:19:28.025Z,0.00
2019-04-26T00:20:28.007Z,0.00
2019-04-26T00:21:27.995Z,0.00
2019-04-26T00:22:27.979Z,0.00
2019-04-26T00:23:27.969Z,0.00
2019-04-26T00:24:28.537Z,0.00
2019-04-26T00:25:27.931Z,0.00
2019-04-26T00:26:27.912Z,0.00
2019-04-26T00:27:27.902Z,0.00
2019-04-26T00:28:27.881Z,0.00
2019-04-26T00:29:27.866Z,0.00
2019-04-26T00:30:27.862Z,0.00
2019-04-26T00:31:27.834Z,0.00
2019-04-26T00:32:27.827Z,0.00
2019-04-26T00:33:27.816Z,0.00
2019-04-26T00:34:27.787Z,0.00
2019-04-26T00:35:27.780Z,0.00
2019-04-26T00:36:27.753Z,0.00
2019-04-26T00:37:27.739Z,0.00
2019-04-26T00:38:27.739Z,0.00
2019-04-26T00:39:27.714Z,0.00
2019-04-26T00:40:27.696Z,0.00
2019-04-26T00:41:27.676Z,0.00
2019-04-26T00:42:27.658Z,0.00
2019-04-26T00:43:27.644Z,0.00
2019-04-26T00:44:27.628Z,0.00
2019-04-26T00:45:27.615Z,0.00
2019-04-26T00:46:27.596Z,0.00
2019-04-26T00:47:27.596Z,0.00
2019-04-26T00:48:27.563Z,0.00
2019-04-26T00:49:27.550Z,0.00
2019-04-26T00:50:27.541Z,0.00
2019-04-26T00:51:27.517Z,0.00
2019-04-26T00:52:27.502Z,0.00
2019-04-26T00:53:27.485Z,0.00
2019-04-26T00:54:27.470Z,0.00
2019-04-26T00:55:27.456Z,0.00
2019-04-26T00:56:27.438Z,0.00
2019-04-26T00:57:27.422Z,0.00
2019-04-26T00:58:27.408Z,0.00
2019-04-26T00:59:27.393Z,0.00
2019-04-26T01:01:27.359Z,0.00
2019-04-26T01:02:27.345Z,0.00
2019-04-26T01:03:27.332Z,0.00
2019-04-26T01:04:27.311Z,0.00
2019-04-26T01:05:27.294Z,0.00
2019-04-26T01:06:33.570Z,0.00
2019-04-26T01:07:27.273Z,0.00
2019-04-26T01:08:27.249Z,0.00
2019-04-26T01:09:27.239Z,0.00
2019-04-26T01:10:27.224Z,0.00
2019-04-26T01:11:27.209Z,0.00
2019-04-26T01:12:27.184Z,0.00
2019-04-26T01:13:27.181Z,0.00
2019-04-26T01:14:27.154Z,0.00
2019-04-26T01:15:27.144Z,0.00
2019-04-26T01:16:27.122Z,0.00
2019-04-26T01:17:27.103Z,0.00
2019-04-26T01:18:27.090Z,0.00
2019-04-26T01:19:27.074Z,0.00
2019-04-26T01:20:27.056Z,0.00
2019-04-26T01:21:27.044Z,0.00
2019-04-26T01:22:27.612Z,0.00
2019-04-26T01:23:27.271Z,0.00
2019-04-26T01:24:27.309Z,0.00
2019-04-26T01:25:27.427Z,0.00
2019-04-26T01:26:27.431Z,0.00
2019-04-26T01:27:27.710Z,0.00
2019-04-26T01:28:27.769Z,0.00
2019-04-26T01:29:27.941Z,0.00
2019-04-26T01:30:27.926Z,0.00
2019-04-26T01:31:26.880Z,0.00
2019-04-26T01:32:26.867Z,0.00
2019-04-26T01:33:26.851Z,0.00
2019-04-26T01:34:26.834Z,0.00
2019-04-26T01:35:26.819Z,0.00
2019-04-26T01:36:26.797Z,0.00
2019-04-26T01:37:26.794Z,0.00
2019-04-26T01:38:27.688Z,0.00
2019-04-26T01:39:27.899Z,0.00
2019-04-26T01:40:26.732Z,0.00
2019-04-26T01:41:26.738Z,0.00
2019-04-26T01:42:26.698Z,0.00
2019-04-26T01:43:26.683Z,0.00
2019-04-26T01:44:26.668Z,0.00
2019-04-26T01:45:27.831Z,0.00
2019-04-26T01:46:26.935Z,0.00
2019-04-26T01:47:26.616Z,0.00
2019-04-26T01:48:27.126Z,0.00
2019-04-26T01:49:26.595Z,0.00
2019-04-26T01:50:27.401Z,0.00
2019-04-26T01:51:26.653Z,0.00
2019-04-26T01:52:27.635Z,0.00
2019-04-26T01:53:26.657Z,0.00
2019-04-26T01:54:27.741Z,0.00
2019-04-26T01:55:26.979Z,0.00
2019-04-26T01:56:27.111Z,0.00
2019-04-26T01:57:27.276Z,0.00
2019-04-26T01:58:27.222Z,0.00
2019-04-26T01:59:27.390Z,0.00
2019-04-26T02:00:27.458Z,0.00
2019-04-26T02:01:27.424Z,0.00
2019-04-26T02:02:26.371Z,0.00
2019-04-26T02:03:26.367Z,0.00
2019-04-26T02:04:26.336Z,0.00
2019-04-26T02:05:26.320Z,0.00
2019-04-26T02:06:31.277Z,0.00
2019-04-26T02:07:26.287Z,0.00
2019-04-26T02:08:26.325Z,0.00
2019-04-26T02:09:26.390Z,0.00
2019-04-26T02:10:26.680Z,0.00
2019-04-26T02:11:26.745Z,0.00
2019-04-26T02:12:26.724Z,0.00
2019-04-26T02:13:26.853Z,0.00
2019-04-26T02:14:26.926Z,0.00
2019-04-26T02:15:27.187Z,0.00
2019-04-26T02:16:27.003Z,0.00
2019-04-26T02:17:27.263Z,0.00
2019-04-26T02:18:26.107Z,0.00
2019-04-26T02:19:26.106Z,0.00
2019-04-26T02:20:26.074Z,0.00
2019-04-26T02:21:26.327Z,0.00
2019-04-26T02:22:26.041Z,0.00
2019-04-26T02:23:26.382Z,0.00
2019-04-26T02:24:26.417Z,0.00
2019-04-26T02:25:26.072Z,0.00
2019-04-26T02:26:26.648Z,0.00
2019-04-26T02:27:26.242Z,0.00
2019-04-26T02:28:26.791Z,0.00
2019-04-26T02:29:26.833Z,0.00
2019-04-26T02:30:27.066Z,0.00
2019-04-26T02:31:27.309Z,0.00
2019-04-26T02:32:27.236Z,0.00
2019-04-26T02:33:27.495Z,0.00
2019-04-26T02:34:27.941Z,0.00
2019-04-26T02:35:27.074Z,0.00
2019-04-26T02:36:44.928Z,0.00
2019-04-26T02:37:26.991Z,0.00
2019-04-26T02:38:27.442Z,0.00
2019-04-26T02:39:27.451Z,0.00
2019-04-26T02:40:27.545Z,0.00
2019-04-26T02:41:27.417Z,0.00
2019-04-26T02:42:26.598Z,0.00
2019-04-26T02:43:26.430Z,0.00
2019-04-26T02:44:26.617Z,0.00
2019-04-26T02:45:26.960Z,0.00
2019-04-26T02:46:28.462Z,0.00
2019-04-26T02:47:26.942Z,0.00
2019-04-26T02:48:27.127Z,0.00
2019-04-26T02:49:27.430Z,0.00
2019-04-26T02:50:28.358Z,0.00
2019-04-26T02:51:28.490Z,0.00
2019-04-26T02:52:25.543Z,0.00
2019-04-26T02:53:25.523Z,0.00
2019-04-26T02:54:25.507Z,0.00
2019-04-26T02:55:25.493Z,0.00
2019-04-26T02:56:25.475Z,0.00
2019-04-26T02:57:25.456Z,0.00
2019-04-26T02:58:25.440Z,0.00
2019-04-26T02:59:25.426Z,0.00
2019-04-26T03:00:25.406Z,0.00
2019-04-26T03:01:25.394Z,0.00
2019-04-26T03:02:25.380Z,0.00
2019-04-26T03:03:25.359Z,0.00
2019-04-26T03:05:25.331Z,0.00
2019-04-26T03:06:25.304Z,0.00
2019-04-26T03:07:25.292Z,0.00
2019-04-26T03:08:25.272Z,0.00
2019-04-26T03:09:25.255Z,0.00
2019-04-26T03:10:25.247Z,0.00
2019-04-26T03:11:25.223Z,0.00
2019-04-26T03:12:25.204Z,0.00
2019-04-26T03:13:25.192Z,0.00
2019-04-26T03:14:25.173Z,0.00
2019-04-26T03:15:25.157Z,0.00
2019-04-26T03:16:25.142Z,0.00
2019-04-26T03:17:25.123Z,0.00
2019-04-26T03:18:25.105Z,0.00
2019-04-26T03:19:25.090Z,0.00
2019-04-26T03:20:25.070Z,0.00
2019-04-26T03:21:25.059Z,0.00
2019-04-26T03:22:25.039Z,0.00
2019-04-26T03:23:41.079Z,0.00
2019-04-26T03:24:25.010Z,0.00
2019-04-26T03:25:24.991Z,0.00
2019-04-26T03:26:24.973Z,0.00
2019-04-26T03:27:24.958Z,0.00
2019-04-26T03:28:25.147Z,0.00
2019-04-26T03:29:26.165Z,0.00
2019-04-26T03:30:24.910Z,0.00
2019-04-26T03:31:24.906Z,0.00
2019-04-26T03:32:24.873Z,0.00
2019-04-26T03:33:25.104Z,0.00
2019-04-26T03:34:24.838Z,0.00
2019-04-26T03:35:24.827Z,0.00
2019-04-26T03:36:24.817Z,0.00
2019-04-26T03:37:24.790Z,0.00
2019-04-26T03:38:24.771Z,0.00
2019-04-26T03:39:24.757Z,0.00
2019-04-26T03:40:24.741Z,0.00
2019-04-26T03:41:24.725Z,0.00
2019-04-26T03:42:24.709Z,0.00
2019-04-26T03:43:24.696Z,0.00
2019-04-26T03:44:24.673Z,0.00
2019-04-26T03:45:24.657Z,0.00
2019-04-26T03:46:24.640Z,0.00
2019-04-26T03:47:24.622Z,0.00
2019-04-26T03:48:24.606Z,0.00
2019-04-26T03:49:24.607Z,0.00
2019-04-26T03:50:24.576Z,0.00
2019-04-26T03:51:24.556Z,0.00
2019-04-26T03:52:24.544Z,0.00
2019-04-26T03:53:24.525Z,4.00
2019-04-26T03:54:24.519Z,4.00
2019-04-26T03:55:24.491Z,4.00
2019-04-26T03:56:24.472Z,0.00
2019-04-26T03:57:24.467Z,0.00
2019-04-26T03:58:24.442Z,4.00
2019-04-26T03:59:24.429Z,4.00
2019-04-26T04:00:24.417Z,4.00
2019-04-26T04:01:24.394Z,0.00
2019-04-26T04:02:24.375Z,4.00
2019-04-26T04:03:26.822Z,4.00
2019-04-26T04:04:24.341Z,4.00
2019-04-26T04:05:24.322Z,4.00
2019-04-26T04:06:24.310Z,8.00
2019-04-26T04:07:36.850Z,8.00
2019-04-26T04:08:24.270Z,12.00
2019-04-26T04:09:24.258Z,12.00
2019-04-26T04:10:24.244Z,12.00
2019-04-26T04:11:24.273Z,12.00
2019-04-26T04:12:24.341Z,16.00
2019-04-26T04:13:24.187Z,20.00
2019-04-26T04:14:24.298Z,20.00
2019-04-26T04:15:24.167Z,20.00
2019-04-26T04:16:24.141Z,20.00
2019-04-26T04:17:24.125Z,24.00
2019-04-26T04:18:24.105Z,32.00
2019-04-26T04:19:24.096Z,32.00
2019-04-26T04:20:24.071Z,36.00
2019-04-26T04:21:24.064Z,40.00
2019-04-26T04:22:24.040Z,36.00
2019-04-26T04:23:24.030Z,40.00
2019-04-26T04:24:24.002Z,40.00
2019-04-26T04:25:23.987Z,36.00
2019-04-26T04:26:23.969Z,36.00
2019-04-26T04:27:23.952Z,36.00
2019-04-26T04:28:23.936Z,36.00
2019-04-26T04:29:39.115Z,36.00
2019-04-26T04:30:23.908Z,32.00
2019-04-26T04:31:23.943Z,32.00
2019-04-26T04:32:23.868Z,36.00
2019-04-26T04:33:23.851Z,36.00
2019-04-26T04:34:23.838Z,36.00
2019-04-26T04:35:23.841Z,40.00
2019-04-26T04:36:23.802Z,44.00
2019-04-26T04:37:23.789Z,44.00
2019-04-26T04:38:23.795Z,52.00
2019-04-26T04:39:23.752Z,56.00
2019-04-26T04:40:23.741Z,64.00
2019-04-26T04:41:23.718Z,76.00
2019-04-26T04:42:23.704Z,96.00
2019-04-26T04:43:23.830Z,120.00
2019-04-26T04:44:23.673Z,144.00
2019-04-26T04:45:23.652Z,164.00
2019-04-26T04:46:23.704Z,184.00
2019-04-26T04:47:25.848Z,204.00
2019-04-26T04:48:23.613Z,224.00
2019-04-26T04:49:23.589Z,252.00
2019-04-26T04:50:23.571Z,292.00
2019-04-26T04:51:23.556Z,344.00
2019-04-26T04:52:23.537Z,396.00
2019-04-26T04:53:23.515Z,440.00
2019-04-26T04:54:23.502Z,468.00
2019-04-26T04:55:23.488Z,484.00
2019-04-26T04:56:23.474Z,504.00
2019-04-26T04:57:23.458Z,516.00
2019-04-26T04:58:23.439Z,508.00
2019-04-26T04:59:23.420Z,480.00
2019-04-26T05:00:23.405Z,420.00
2019-04-26T05:01:23.391Z,392.00
2019-04-26T05:02:23.376Z,392.00
2019-04-26T05:03:23.352Z,396.00
2019-04-26T05:04:23.333Z,384.00
2019-04-26T05:05:23.317Z,352.00
2019-04-26T05:06:23.309Z,324.00
2019-04-26T05:07:23.284Z,320.00
2019-04-26T05:08:23.267Z,332.00
2019-04-26T05:09:23.259Z,340.00
2019-04-26T05:10:23.237Z,340.00
2019-04-26T05:11:23.217Z,336.00
2019-04-26T05:12:23.207Z,316.00
2019-04-26T05:13:23.186Z,312.00
2019-04-26T05:14:23.169Z,312.00
2019-04-26T05:15:23.154Z,312.00
2019-04-26T05:16:23.132Z,316.00
2019-04-26T05:17:23.121Z,332.00
2019-04-26T05:19:23.086Z,384.00
2019-04-26T05:20:23.080Z,404.00
2019-04-26T05:21:23.051Z,436.00
2019-04-26T05:22:24.464Z,468.00
2019-04-26T05:23:23.018Z,476.00
2019-04-26T05:24:22.999Z,476.00
2019-04-26T05:25:22.982Z,484.00
2019-04-26T05:26:22.964Z,496.00
2019-04-26T05:27:22.944Z,504.00
2019-04-26T05:28:22.933Z,520.00
2019-04-26T05:29:22.922Z,548.00
2019-04-26T05:30:22.896Z,572.00
2019-04-26T05:31:22.881Z,584.00
2019-04-26T05:32:22.882Z,592.00
2019-04-26T05:33:22.845Z,596.00
2019-04-26T05:34:22.829Z,588.00
2019-04-26T05:36:22.802Z,572.00
2019-04-26T05:39:59.037Z,548.00
2019-04-26T05:40:59.022Z,560.00
2019-04-26T05:41:59.006Z,568.00
2019-04-26T05:42:58.983Z,608.00
2019-04-26T05:43:58.983Z,608.00
2019-04-26T05:44:58.987Z,600.00
2019-04-26T05:45:58.939Z,588.00
2019-04-26T05:46:58.923Z,532.00
2019-04-26T05:48:08.439Z,484.00
2019-04-26T05:48:58.879Z,452.00
2019-04-26T05:49:58.864Z,424.00
2019-04-26T05:50:58.848Z,420.00
2019-04-26T05:51:58.832Z,416.00
2019-04-26T05:52:59.769Z,412.00
2019-04-26T05:53:58.795Z,404.00
2019-04-26T05:54:58.789Z,400.00
2019-04-26T05:55:58.764Z,408.00
2019-04-26T05:56:58.744Z,420.00
2019-04-26T05:57:58.728Z,432.00
2019-04-26T05:59:01.432Z,448.00
2019-04-26T05:59:58.951Z,452.00
2019-04-26T06:00:58.684Z,452.00
2019-04-26T06:01:59.020Z,460.00
2019-04-26T06:02:59.032Z,484.00
2019-04-26T06:03:58.629Z,504.00
2019-04-26T06:04:59.264Z,532.00
2019-04-26T06:05:58.611Z,564.00
2019-04-26T06:06:59.351Z,588.00
2019-04-26T06:07:58.638Z,588.00
2019-04-26T06:08:59.553Z,576.00
2019-04-26T06:09:58.672Z,556.00
2019-04-26T06:10:58.515Z,548.00
2019-04-26T06:11:58.781Z,544.00
2019-04-26T06:12:58.754Z,552.00
2019-04-26T06:13:58.468Z,568.00
2019-04-26T06:14:58.918Z,608.00
2019-04-26T06:15:58.420Z,672.00
2019-04-26T06:16:59.225Z,736.00
2019-04-26T06:17:58.393Z,780.00
2019-04-26T06:18:59.581Z,808.00
2019-04-26T06:19:59.379Z,820.00
2019-04-26T06:20:58.347Z,824.00
2019-04-26T06:21:58.325Z,836.00
2019-04-26T06:22:59.662Z,840.00
2019-04-26T06:23:58.295Z,824.00
2019-04-26T06:24:58.270Z,808.00
2019-04-26T06:26:00.990Z,780.00
2019-04-26T06:27:09.277Z,744.00
2019-04-26T06:27:58.432Z,704.00
2019-04-26T06:28:59.032Z,668.00
2019-04-26T06:29:58.772Z,648.00
2019-04-26T06:30:59.298Z,640.00
2019-04-26T06:31:58.162Z,648.00
2019-04-26T06:33:04.015Z,668.00
2019-04-26T06:33:58.723Z,696.00
2019-04-26T06:34:59.280Z,736.00
2019-04-26T06:35:59.225Z,764.00
2019-04-26T06:36:58.065Z,780.00
2019-04-26T06:37:58.051Z,780.00
2019-04-26T06:38:58.052Z,764.00
2019-04-26T06:39:58.016Z,748.00
2019-04-26T06:40:58.221Z,720.00
2019-04-26T06:41:58.488Z,684.00
2019-04-26T06:42:58.295Z,636.00
2019-04-26T06:43:58.303Z,600.00
2019-04-26T06:44:58.340Z,568.00
2019-04-26T06:45:58.599Z,544.00
2019-04-26T06:46:57.910Z,540.00
2019-04-26T06:47:58.811Z,532.00
2019-04-26T06:48:58.919Z,528.00
2019-04-26T06:49:57.848Z,532.00
2019-04-26T06:50:58.503Z,536.00
2019-04-26T06:51:58.446Z,548.00
2019-04-26T06:52:58.136Z,564.00
2019-04-26T06:53:58.612Z,580.00
2019-04-26T06:54:57.887Z,592.00
2019-04-26T06:55:59.063Z,608.00
2019-04-26T06:57:08.007Z,636.00
2019-04-26T06:57:59.435Z,672.00
2019-04-26T06:58:57.975Z,700.00
2019-04-26T06:59:57.679Z,728.00
2019-04-26T07:00:57.670Z,756.00
2019-04-26T07:01:59.060Z,796.00
2019-04-26T07:02:57.626Z,840.00
2019-04-26T07:03:58.346Z,904.00
2019-04-26T07:04:59.180Z,952.00
2019-04-26T07:05:58.810Z,980.00
2019-04-26T07:06:58.221Z,1020.00
2019-04-26T07:07:57.540Z,1088.00
2019-04-26T07:08:59.405Z,1196.00
2019-04-26T07:09:58.767Z,1304.00
2019-04-26T07:10:59.122Z,1356.00
2019-04-26T07:11:59.373Z,1332.00
2019-04-26T07:12:58.690Z,1284.00
2019-04-26T07:13:59.178Z,1260.00
2019-04-26T07:14:57.421Z,1276.00
2019-04-26T07:15:57.413Z,1308.00
2019-04-26T07:16:58.213Z,1300.00
2019-04-26T07:17:57.369Z,1224.00
2019-04-26T07:18:57.354Z,1132.00
2019-04-26T07:19:59.639Z,1040.00
2019-04-26T07:20:57.324Z,972.00
2019-04-26T07:21:57.303Z,932.00
2019-04-26T07:22:57.329Z,944.00
2019-04-26T07:23:57.270Z,1016.00
2019-04-26T07:24:57.252Z,1104.00
2019-04-26T07:25:57.237Z,1120.00
2019-04-26T07:26:57.219Z,1084.00
2019-04-26T07:28:03.626Z,1056.00
2019-04-26T07:28:57.183Z,1060.00
2019-04-26T07:29:57.210Z,1084.00
2019-04-26T07:30:57.208Z,1116.00
2019-04-26T07:31:57.139Z,1108.00
2019-04-26T07:32:57.126Z,1052.00
2019-04-26T07:33:57.103Z,940.00
2019-04-26T07:34:57.087Z,972.00
2019-04-26T07:35:58.892Z,1148.00
2019-04-26T07:36:57.052Z,1248.00
2019-04-26T07:37:57.036Z,1228.00
2019-04-26T07:39:09.170Z,1120.00
2019-04-26T07:39:57.010Z,1064.00
2019-04-26T07:40:56.984Z,1112.00
2019-04-26T07:41:56.970Z,1108.00
2019-04-26T07:42:56.954Z,1128.00
2019-04-26T07:43:56.932Z,1184.00
2019-04-26T07:44:56.917Z,1276.00
2019-04-26T07:45:56.901Z,1436.00
2019-04-26T07:46:56.886Z,1572.00
2019-04-26T07:47:56.874Z,1680.00
2019-04-26T07:48:56.855Z,1708.00
2019-04-26T07:49:56.833Z,1668.00
2019-04-26T07:50:56.825Z,1604.00
2019-04-26T07:51:56.799Z,1588.00
2019-04-26T07:52:56.792Z,1588.00
2019-04-26T07:53:56.771Z,1600.00
2019-04-26T07:54:56.754Z,1628.00
2019-04-26T07:55:56.735Z,1648.00
2019-04-26T07:56:56.713Z,1648.00
2019-04-26T07:57:56.698Z,1620.00
2019-04-26T07:58:56.684Z,1632.00
2019-04-26T07:59:56.668Z,1700.00
2019-04-26T08:00:56.648Z,1644.00
2019-04-26T08:01:56.642Z,1740.00
2019-04-26T08:02:56.617Z,1624.00
2019-04-26T08:03:56.604Z,1476.00
2019-04-26T08:04:56.582Z,1360.00
2019-04-26T08:05:56.565Z,1400.00
2019-04-26T08:06:56.548Z,1284.00
2019-04-26T08:07:56.532Z,1296.00
2019-04-26T08:08:56.514Z,1356.00
2019-04-26T08:09:59.869Z,1732.00
2019-04-26T08:10:56.490Z,2148.00
2019-04-26T08:11:56.474Z,2460.00
2019-04-26T08:12:56.543Z,2424.00
2019-04-26T08:13:56.542Z,2088.00
2019-04-26T08:14:56.424Z,2156.00
2019-04-26T08:15:56.396Z,2244.00
2019-04-26T08:16:56.380Z,2112.00
2019-04-26T08:17:56.367Z,1724.00
2019-04-26T08:18:56.347Z,1712.00
2019-04-26T08:19:57.584Z,1672.00
2019-04-26T08:20:56.311Z,1540.00
2019-04-26T08:22:11.157Z,1496.00
2019-04-26T08:22:56.286Z,1444.00
2019-04-26T08:23:57.712Z,1564.00
2019-04-26T08:24:56.299Z,1820.00
2019-04-26T08:25:56.230Z,1820.00
2019-04-26T08:27:08.068Z,1672.00
2019-04-26T08:27:56.195Z,1560.00
2019-04-26T08:28:56.638Z,1504.00
2019-04-26T08:29:56.162Z,1516.00
2019-04-26T08:30:56.147Z,1500.00
2019-04-26T08:31:57.866Z,1548.00
2019-04-26T08:32:56.113Z,1416.00
2019-04-26T08:33:56.096Z,1380.00
2019-04-26T08:34:56.077Z,1508.00
2019-04-26T08:35:56.072Z,1704.00
2019-04-26T08:36:57.451Z,1812.00
2019-04-26T08:37:56.029Z,1668.00
2019-04-26T08:38:56.022Z,1436.00
2019-04-26T08:39:56.076Z,1280.00
2019-04-26T08:40:55.979Z,1352.00
2019-04-26T08:41:55.963Z,1324.00
2019-04-26T08:42:57.442Z,1260.00
2019-04-26T08:43:55.932Z,1236.00
2019-04-26T08:44:55.915Z,1252.00
2019-04-26T08:46:02.918Z,1340.00
2019-04-26T08:46:57.063Z,1348.00
2019-04-26T08:47:55.867Z,1524.00
2019-04-26T08:48:58.087Z,1488.00
2019-04-26T08:49:55.828Z,1448.00
2019-04-26T08:50:55.819Z,1680.00
2019-04-26T08:51:56.158Z,1760.00
2019-04-26T08:52:57.879Z,1784.00
2019-04-26T08:53:55.775Z,1672.00
2019-04-26T08:54:55.755Z,1652.00
2019-04-26T08:55:55.733Z,1628.00
2019-04-26T08:56:55.716Z,1560.00
2019-04-26T08:57:55.694Z,1624.00
2019-04-26T08:58:55.690Z,1748.00
2019-04-26T08:59:55.664Z,1732.00
2019-04-26T09:00:55.644Z,1740.00
2019-04-26T09:01:55.627Z,1948.00
2019-04-26T09:02:55.611Z,2072.00
2019-04-26T09:03:55.598Z,2108.00
2019-04-26T09:04:55.575Z,2148.00
2019-04-26T09:05:55.559Z,2232.00
2019-04-26T09:06:55.551Z,2380.00
2019-04-26T09:07:57.687Z,2576.00
2019-04-26T09:08:55.509Z,2864.00
2019-04-26T09:09:57.490Z,3152.00
2019-04-26T09:10:55.477Z,3392.00
2019-04-26T09:11:59.884Z,3560.00
2019-04-26T09:12:55.439Z,3616.00
2019-04-26T09:13:55.424Z,3624.00
2019-04-26T09:14:55.433Z,3484.00
2019-04-26T09:15:55.403Z,3440.00
2019-04-26T09:16:55.379Z,3672.00
2019-04-26T09:17:55.357Z,3708.00
2019-04-26T09:18:59.339Z,3996.00
2019-04-26T09:19:58.079Z,4232.00
2019-04-26T09:20:55.312Z,3908.00
2019-04-26T09:21:55.301Z,3672.00
2019-04-26T09:22:56.651Z,3732.00
2019-04-26T09:23:55.258Z,3748.00
2019-04-26T09:24:59.519Z,3676.00
2019-04-26T09:25:59.296Z,3700.00
2019-04-26T09:26:55.221Z,3748.00
2019-04-26T09:27:55.206Z,3644.00
2019-04-26T09:28:56.518Z,3500.00
2019-04-26T09:29:55.170Z,3932.00
2019-04-26T09:30:55.143Z,4280.00
2019-04-26T09:31:55.416Z,4200.00
2019-04-26T09:32:58.230Z,3856.00
2019-04-26T09:33:55.096Z,3420.00
2019-04-26T09:34:55.080Z,3244.00
2019-04-26T09:35:55.066Z,3176.00
2019-04-26T09:36:55.049Z,2924.00
2019-04-26T09:37:55.033Z,2804.00
2019-04-26T09:38:55.020Z,2740.00
2019-04-26T09:39:55.003Z,2556.00
2019-04-26T09:40:56.332Z,2288.00
2019-04-26T09:41:54.969Z,2120.00
2019-04-26T09:42:54.958Z,2048.00
2019-04-26T09:43:58.615Z,2168.00
2019-04-26T09:44:56.902Z,2188.00
2019-04-26T09:45:54.902Z,2328.00
2019-04-26T09:46:54.894Z,2536.00
2019-04-26T09:47:54.876Z,2924.00
2019-04-26T09:48:54.859Z,3056.00
2019-04-26T09:49:54.848Z,3104.00
2019-04-26T09:50:54.826Z,3240.00
2019-04-26T09:51:54.816Z,3212.00
2019-04-26T09:52:54.792Z,3224.00
2019-04-26T09:53:54.778Z,3220.00
2019-04-26T09:54:54.770Z,3232.00
2019-04-26T09:55:54.745Z,3176.00
2019-04-26T09:56:54.739Z,3372.00
2019-04-26T09:57:56.964Z,3780.00
2019-04-26T09:58:54.699Z,4116.00
2019-04-26T09:59:54.681Z,4192.00
2019-04-26T10:00:54.673Z,4200.00
2019-04-26T10:01:55.345Z,4012.00
2019-04-26T10:02:54.639Z,3904.00
2019-04-26T10:03:54.622Z,3784.00
2019-04-26T10:04:54.605Z,3860.00
2019-04-26T10:05:55.922Z,3560.00
2019-04-26T10:06:54.575Z,3272.00
2019-04-26T10:07:54.566Z,3228.00
2019-04-26T10:08:54.541Z,3056.00
2019-04-26T10:09:56.501Z,3328.00
2019-04-26T10:10:54.521Z,3536.00
2019-04-26T10:11:54.496Z,3696.00
2019-04-26T10:12:54.483Z,3768.00
2019-04-26T10:13:54.480Z,3728.00
2019-04-26T10:14:54.457Z,3664.00
2019-04-26T10:15:58.092Z,3760.00
2019-04-26T10:16:54.421Z,3872.00
2019-04-26T10:17:54.432Z,4080.00
2019-04-26T10:18:54.587Z,4372.00
2019-04-26T10:19:54.371Z,4648.00
2019-04-26T10:20:54.353Z,5096.00
2019-04-26T10:21:54.344Z,5244.00
2019-04-26T10:22:54.327Z,4988.00
2019-04-26T10:23:54.310Z,5276.00
2019-04-26T10:24:54.290Z,5132.00
2019-04-26T10:25:54.280Z,4904.00
2019-04-26T10:26:55.509Z,4780.00
2019-04-26T10:27:54.255Z,4676.00
2019-04-26T10:28:54.234Z,4580.00
2019-04-26T10:29:56.581Z,4588.00
2019-04-26T10:30:54.206Z,4764.00
2019-04-26T10:31:54.190Z,4996.00
2019-04-26T10:32:54.169Z,5196.00
2019-04-26T10:33:54.158Z,5128.00
2019-04-26T10:34:54.141Z,4960.00
2019-04-26T10:35:56.630Z,4404.00
2019-04-26T10:36:56.827Z,4312.00
2019-04-26T10:37:54.096Z,4444.00
2019-04-26T10:38:54.420Z,4360.00
2019-04-26T10:39:54.067Z,4148.00
2019-04-26T10:40:54.058Z,3992.00
2019-04-26T10:41:54.035Z,3828.00
2019-04-26T10:42:54.024Z,3552.00
2019-04-26T10:43:54.006Z,3460.00
2019-04-26T10:44:53.985Z,3576.00
2019-04-26T10:45:55.028Z,3824.00
2019-04-26T10:46:55.605Z,4344.00
2019-04-26T10:47:53.946Z,4528.00
2019-04-26T10:48:53.925Z,4432.00
2019-04-26T10:49:54.388Z,4248.00
2019-04-26T10:50:53.897Z,4020.00
2019-04-26T10:51:53.878Z,3712.00
2019-04-26T10:52:55.585Z,3552.00
2019-04-26T10:53:53.849Z,3448.00
2019-04-26T10:54:53.836Z,3456.00
2019-04-26T10:55:53.819Z,3292.00
2019-04-26T10:56:55.031Z,3180.00
2019-04-26T10:57:53.790Z,3304.00
2019-04-26T10:58:53.772Z,3180.00
2019-04-26T10:59:53.761Z,3044.00
2019-04-26T11:00:54.117Z,3020.00
2019-04-26T11:01:53.734Z,3076.00
2019-04-26T11:02:53.710Z,3044.00
2019-04-26T11:03:53.695Z,2852.00
2019-04-26T11:04:53.681Z,2620.00
2019-04-26T11:05:55.304Z,2412.00
2019-04-26T11:06:53.672Z,2444.00
2019-04-26T11:07:53.633Z,2516.00
2019-04-26T11:08:53.618Z,2608.00
2019-04-26T11:09:53.605Z,2732.00
2019-04-26T11:10:53.588Z,2844.00
2019-04-26T11:11:53.576Z,3164.00
2019-04-26T11:12:53.560Z,3496.00
2019-04-26T11:13:53.542Z,3668.00
2019-04-26T11:14:56.906Z,3660.00
2019-04-26T11:15:53.515Z,3480.00
2019-04-26T11:16:53.505Z,3100.00
2019-04-26T11:17:53.490Z,2640.00
2019-04-26T11:18:53.462Z,2456.00
2019-04-26T11:19:53.446Z,2548.00
2019-04-26T11:20:53.432Z,2932.00
2019-04-26T11:21:54.792Z,3272.00
2019-04-26T11:22:53.432Z,3388.00
2019-04-26T11:23:53.388Z,3544.00
2019-04-26T11:24:53.895Z,3604.00
2019-04-26T11:25:53.422Z,3648.00
2019-04-26T11:26:53.347Z,3544.00
2019-04-26T11:27:53.334Z,3428.00
2019-04-26T11:28:55.820Z,3364.00
2019-04-26T11:29:54.182Z,3368.00
2019-04-26T11:30:57.045Z,3164.00
2019-04-26T11:31:54.215Z,2940.00
2019-04-26T11:32:53.246Z,2956.00
2019-04-26T11:34:04.713Z,2952.00
2019-04-26T11:34:54.581Z,2920.00
2019-04-26T11:35:53.242Z,3008.00
2019-04-26T11:36:53.179Z,3052.00
2019-04-26T11:37:55.238Z,3052.00
2019-04-26T11:38:53.148Z,3056.00
2019-04-26T11:39:53.138Z,3220.00
2019-04-26T11:41:05.438Z,3328.00
2019-04-26T11:41:53.100Z,3380.00
2019-04-26T11:42:53.103Z,3332.00
2019-04-26T11:43:54.516Z,3508.00
2019-04-26T11:44:56.420Z,3844.00
2019-04-26T11:46:03.726Z,4344.00
2019-04-26T11:46:53.024Z,4832.00
2019-04-26T11:47:56.325Z,5176.00
2019-04-26T11:48:58.752Z,5560.00
2019-04-26T11:49:53.022Z,5788.00
2019-04-26T11:50:53.659Z,5824.00
2019-04-26T11:51:52.946Z,5776.00
2019-04-26T11:52:52.933Z,5712.00
2019-04-26T11:53:52.920Z,5684.00
2019-04-26T11:54:55.133Z,5720.00
2019-04-26T11:55:52.885Z,5836.00
2019-04-26T11:56:52.870Z,5924.00
2019-04-26T11:57:52.852Z,6120.00
2019-04-26T11:58:56.668Z,6496.00
2019-04-26T11:59:52.820Z,7388.00
2019-04-26T12:00:52.806Z,7668.00
2019-04-26T12:01:52.790Z,8108.00
2019-04-26T12:02:52.784Z,8456.00
2019-04-26T12:03:55.624Z,7956.00
2019-04-26T12:04:53.770Z,7980.00
2019-04-26T12:05:52.751Z,8076.00
2019-04-26T12:06:52.716Z,6964.00
2019-04-26T12:07:52.703Z,7196.00
2019-04-26T12:08:52.696Z,7088.00
2019-04-26T12:09:52.675Z,6344.00
2019-04-26T12:10:52.661Z,6152.00
2019-04-26T12:12:03.912Z,6012.00
2019-04-26T12:13:04.908Z,6156.00
2019-04-26T12:13:55.292Z,6428.00
2019-04-26T12:14:52.605Z,6456.00
2019-04-26T12:15:52.592Z,6752.00
2019-04-26T12:16:58.872Z,6220.00
2019-04-26T12:17:58.671Z,5544.00
2019-04-26T12:18:52.551Z,5440.00
2019-04-26T12:19:53.336Z,5916.00
2019-04-26T12:20:52.518Z,5460.00
2019-04-26T12:21:52.502Z,5208.00
2019-04-26T12:22:52.487Z,4916.00
2019-04-26T12:23:55.569Z,4852.00
2019-04-26T12:24:52.480Z,4768.00
2019-04-26T12:25:52.444Z,4736.00
2019-04-26T12:26:55.913Z,4708.00
2019-04-26T12:27:53.577Z,4400.00
2019-04-26T12:28:52.400Z,4056.00
2019-04-26T12:29:52.388Z,4044.00
2019-04-26T12:30:54.113Z,3996.00
2019-04-26T12:31:52.371Z,3804.00
2019-04-26T12:32:52.347Z,3880.00
2019-04-26T12:33:52.335Z,3932.00
2019-04-26T12:34:52.318Z,3968.00
2019-04-26T12:35:57.163Z,4116.00
2019-04-26T12:36:52.294Z,4184.00
2019-04-26T12:37:54.650Z,4232.00
2019-04-26T12:38:52.258Z,4228.00
2019-04-26T12:39:52.246Z,4172.00
2019-04-26T12:40:52.229Z,4080.00